Luxi, China
Current Conditions -  °F | °C
As of 8:00 PM on Sunday 25 Jan 2015 (Local Time) from ZPPP Reporting Station
Clear Clear  
Wind Chill: 52°   Ceiling: Unl
Heat Index: 52°   Visibility: 6mi
Dew Point: 30°   Wind: 9mph
Humidity: 44%   Direction: 200°SSW
Pressure: 30.12"   Gusts: NA
Location:  24.53°N, 103.77°E
Report Text: ZPPP 251200Z 20004MPS CAVOK 11/M01 Q1020 NOSIG
Loading
Personal Weather Stations






























Interactive Weather Map New forecast layout! Learn more

10-Day Weather Forecast

Advertisements
Track Severe Weather on mobile